sensor_id;sensor_type;location;lat;lon;timestamp;pressure;altitude;pressure_sealevel;temperature;humidity
77706;BME280;66874;45.274;5.880;2023-08-08T00:01:15;99142.06;;;15.71;50.37
77706;BME280;66874;45.274;5.880;2023-08-08T00:03:40;99143.94;;;15.67;50.26
77706;BME280;66874;45.274;5.880;2023-08-08T00:06:06;99144.91;;;15.65;50.17
77706;BME280;66874;45.274;5.880;2023-08-08T00:08:31;99138.75;;;15.64;50.29
77706;BME280;66874;45.274;5.880;2023-08-08T00:10:56;99139.59;;;15.66;50.20
77706;BME280;66874;45.274;5.880;2023-08-08T00:13:22;99139.53;;;15.68;50.28
77706;BME280;66874;45.274;5.880;2023-08-08T00:15:48;99137.91;;;15.65;50.38
77706;BME280;66874;45.274;5.880;2023-08-08T00:18:13;99137.81;;;15.67;50.41
77706;BME280;66874;45.274;5.880;2023-08-08T00:20:39;99136.91;;;15.68;50.56
77706;BME280;66874;45.274;5.880;2023-08-08T00:23:04;99129.13;;;15.63;50.48
77706;BME280;66874;45.274;5.880;2023-08-08T00:25:29;99128.56;;;15.55;50.70
77706;BME280;66874;45.274;5.880;2023-08-08T00:27:55;99130.47;;;15.51;51.02
77706;BME280;66874;45.274;5.880;2023-08-08T00:30:20;99139.41;;;15.47;51.26
77706;BME280;66874;45.274;5.880;2023-08-08T00:32:46;99128.00;;;15.47;50.91
77706;BME280;66874;45.274;5.880;2023-08-08T00:35:11;99128.88;;;15.47;51.32
77706;BME280;66874;45.274;5.880;2023-08-08T00:37:37;99124.44;;;15.48;51.27
77706;BME280;66874;45.274;5.880;2023-08-08T00:40:02;99121.81;;;15.48;51.47
77706;BME280;66874;45.274;5.880;2023-08-08T00:42:28;99116.66;;;15.45;51.55
77706;BME280;66874;45.274;5.880;2023-08-08T00:44:53;99123.72;;;15.44;51.59
77706;BME280;66874;45.274;5.880;2023-08-08T00:47:18;99129.09;;;15.41;51.63
77706;BME280;66874;45.274;5.880;2023-08-08T00:49:45;99130.09;;;15.38;51.63
77706;BME280;66874;45.274;5.880;2023-08-08T00:52:13;99127.50;;;15.37;51.73
77706;BME280;66874;45.274;5.880;2023-08-08T00:54:39;99126.81;;;15.32;51.78
77706;BME280;66874;45.274;5.880;2023-08-08T00:57:05;99128.59;;;15.31;52.25
77706;BME280;66874;45.274;5.880;2023-08-08T00:59:31;99131.41;;;15.27;52.22
77706;BME280;66874;45.274;5.880;2023-08-08T01:01:57;99130.66;;;15.23;52.28
77706;BME280;66874;45.274;5.880;2023-08-08T01:04:25;99128.97;;;15.21;52.43
77706;BME280;66874;45.274;5.880;2023-08-08T01:07:00;99130.88;;;15.17;52.74
77706;BME280;66874;45.274;5.880;2023-08-08T01:09:43;99124.84;;;15.13;52.71
77706;BME280;66874;45.274;5.880;2023-08-08T01:12:12;99127.59;;;15.10;52.78
77706;BME280;66874;45.274;5.880;2023-08-08T01:14:40;99129.50;;;15.07;52.71
77706;BME280;66874;45.274;5.880;2023-08-08T01:17:08;99127.84;;;15.04;52.89
77706;BME280;66874;45.274;5.880;2023-08-08T01:19:34;99127.94;;;15.01;52.99
77706;BME280;66874;45.274;5.880;2023-08-08T01:22:05;99128.91;;;14.99;53.09
77706;BME280;66874;45.274;5.880;2023-08-08T01:24:32;99125.47;;;14.97;53.06
77706;BME280;66874;45.274;5.880;2023-08-08T01:27:00;99130.00;;;14.93;53.26
77706;BME280;66874;45.274;5.880;2023-08-08T01:29:26;99123.19;;;14.87;53.19
77706;BME280;66874;45.274;5.880;2023-08-08T01:31:52;99129.34;;;14.86;53.13
77706;BME280;66874;45.274;5.880;2023-08-08T01:34:18;99120.69;;;14.83;53.52
77706;BME280;66874;45.274;5.880;2023-08-08T01:36:55;99122.56;;;14.79;53.72
77706;BME280;66874;45.274;5.880;2023-08-08T01:39:30;99131.47;;;14.77;54.02
77706;BME280;66874;45.274;5.880;2023-08-08T01:41:59;99138.59;;;14.73;53.75
77706;BME280;66874;45.274;5.880;2023-08-08T01:44:25;99142.28;;;14.68;54.04
77706;BME280;66874;45.274;5.880;2023-08-08T01:46:52;99144.22;;;14.62;53.89
77706;BME280;66874;45.274;5.880;2023-08-08T01:49:18;99147.94;;;14.57;54.13
77706;BME280;66874;45.274;5.880;2023-08-08T01:51:44;99150.69;;;14.54;54.21
77706;BME280;66874;45.274;5.880;2023-08-08T01:54:09;99146.44;;;14.48;54.26
77706;BME280;66874;45.274;5.880;2023-08-08T01:56:35;99148.44;;;14.41;54.62
77706;BME280;66874;45.274;5.880;2023-08-08T01:59:00;99145.13;;;14.35;54.52
77706;BME280;66874;45.274;5.880;2023-08-08T02:01:26;99147.06;;;14.30;54.70
77706;BME280;66874;45.274;5.880;2023-08-08T02:03:51;99146.31;;;14.26;54.81
77706;BME280;66874;45.274;5.880;2023-08-08T02:06:16;99149.97;;;14.21;54.97
77706;BME280;66874;45.274;5.880;2023-08-08T02:08:42;99150.06;;;14.17;55.01
77706;BME280;66874;45.274;5.880;2023-08-08T02:11:07;99147.50;;;14.16;54.78
77706;BME280;66874;45.274;5.880;2023-08-08T02:13:32;99144.94;;;14.14;54.93
77706;BME280;66874;45.274;5.880;2023-08-08T02:15:58;99141.53;;;14.11;55.28
77706;BME280;66874;45.274;5.880;2023-08-08T02:18:23;99135.56;;;14.06;55.47
77706;BME280;66874;45.274;5.880;2023-08-08T02:20:49;99141.03;;;14.00;55.69
77706;BME280;66874;45.274;5.880;2023-08-08T02:23:14;99139.44;;;13.94;55.84
77706;BME280;66874;45.274;5.880;2023-08-08T02:25:40;99137.97;;;13.85;55.78
77706;BME280;66874;45.274;5.880;2023-08-08T02:28:05;99138.97;;;13.81;55.98
77706;BME280;66874;45.274;5.880;2023-08-08T02:30:31;99147.81;;;13.79;56.07
77706;BME280;66874;45.274;5.880;2023-08-08T02:32:56;99147.84;;;13.77;56.10
77706;BME280;66874;45.274;5.880;2023-08-08T02:35:22;99140.88;;;13.76;56.57
77706;BME280;66874;45.274;5.880;2023-08-08T02:37:47;99144.31;;;13.78;56.32
77706;BME280;66874;45.274;5.880;2023-08-08T02:40:13;99148.78;;;13.76;56.53
77706;BME280;66874;45.274;5.880;2023-08-08T02:42:38;99153.22;;;13.74;56.30
77706;BME280;66874;45.274;5.880;2023-08-08T02:45:04;99150.63;;;13.73;56.64
77706;BME280;66874;45.274;5.880;2023-08-08T02:47:29;99154.13;;;13.73;56.88
77706;BME280;66874;45.274;5.880;2023-08-08T02:49:55;99150.56;;;13.74;56.66
77706;BME280;66874;45.274;5.880;2023-08-08T02:52:20;99148.00;;;13.73;56.93
77706;BME280;66874;45.274;5.880;2023-08-08T02:54:46;99144.63;;;13.67;57.10
77706;BME280;66874;45.274;5.880;2023-08-08T02:57:11;99151.03;;;13.59;57.17
77706;BME280;66874;45.274;5.880;2023-08-08T02:59:37;99157.44;;;13.50;57.30
77706;BME280;66874;45.274;5.880;2023-08-08T03:02:03;99151.44;;;13.45;57.37
77706;BME280;66874;45.274;5.880;2023-08-08T03:04:29;99158.59;;;13.40;57.57
77706;BME280;66874;45.274;5.880;2023-08-08T03:06:55;99157.81;;;13.38;58.03
77706;BME280;66874;45.274;5.880;2023-08-08T03:09:21;99157.81;;;13.38;58.07
77706;BME280;66874;45.274;5.880;2023-08-08T03:11:46;99159.59;;;13.36;58.25
77706;BME280;66874;45.274;5.880;2023-08-08T03:14:11;99159.66;;;13.34;58.40
77706;BME280;66874;45.274;5.880;2023-08-08T03:16:37;99172.03;;;13.31;58.47
77706;BME280;66874;45.274;5.880;2023-08-08T03:19:02;99172.97;;;13.28;58.46
77706;BME280;66874;45.274;5.880;2023-08-08T03:21:28;99167.78;;;13.25;58.51
77706;BME280;66874;45.274;5.880;2023-08-08T03:23:53;99160.00;;;13.20;58.65
77706;BME280;66874;45.274;5.880;2023-08-08T03:26:19;99162.78;;;13.16;58.95
77706;BME280;66874;45.274;5.880;2023-08-08T03:28:44;99172.44;;;13.14;58.77
77706;BME280;66874;45.274;5.880;2023-08-08T03:31:10;99172.41;;;13.15;58.68
77706;BME280;66874;45.274;5.880;2023-08-08T03:33:36;99176.84;;;13.13;58.71
77706;BME280;66874;45.274;5.880;2023-08-08T03:36:01;99170.81;;;13.10;58.71
77706;BME280;66874;45.274;5.880;2023-08-08T03:38:26;99166.53;;;13.07;58.99
77706;BME280;66874;45.274;5.880;2023-08-08T03:40:52;99157.00;;;13.03;58.79
77706;BME280;66874;45.274;5.880;2023-08-08T03:43:17;99162.28;;;13.02;59.04
77706;BME280;66874;45.274;5.880;2023-08-08T03:45:44;99158.84;;;13.00;58.96
77706;BME280;66874;45.274;5.880;2023-08-08T03:48:10;99158.88;;;12.98;59.10
77706;BME280;66874;45.274;5.880;2023-08-08T03:50:36;99162.41;;;12.97;58.86
77706;BME280;66874;45.274;5.880;2023-08-08T03:53:01;99164.19;;;12.95;59.19
77706;BME280;66874;45.274;5.880;2023-08-08T03:55:26;99167.72;;;12.95;59.15
77706;BME280;66874;45.274;5.880;2023-08-08T03:57:52;99164.31;;;12.92;59.38
77706;BME280;66874;45.274;5.880;2023-08-08T04:00:17;99171.47;;;12.85;59.37
77706;BME280;66874;45.274;5.880;2023-08-08T04:02:43;99180.28;;;12.83;59.44
77706;BME280;66874;45.274;5.880;2023-08-08T04:05:08;99184.81;;;12.78;59.66
77706;BME280;66874;45.274;5.880;2023-08-08T04:07:34;99184.88;;;12.76;59.66
77706;BME280;66874;45.274;5.880;2023-08-08T04:10:00;99185.75;;;12.75;59.92
77706;BME280;66874;45.274;5.880;2023-08-08T04:12:26;99178.91;;;12.69;60.03
77706;BME280;66874;45.274;5.880;2023-08-08T04:14:51;99191.31;;;12.63;60.20
77706;BME280;66874;45.274;5.880;2023-08-08T04:17:16;99201.88;;;12.60;60.23
77706;BME280;66874;45.274;5.880;2023-08-08T04:19:42;99191.47;;;12.57;60.11
77706;BME280;66874;45.274;5.880;2023-08-08T04:22:07;99197.69;;;12.53;60.46
77706;BME280;66874;45.274;5.880;2023-08-08T04:24:32;99191.56;;;12.52;60.46
77706;BME280;66874;45.274;5.880;2023-08-08T04:26:58;99189.81;;;12.53;60.34
77706;BME280;66874;45.274;5.880;2023-08-08T04:29:23;99189.91;;;12.50;60.62
77706;BME280;66874;45.274;5.880;2023-08-08T04:31:48;99191.81;;;12.43;60.54
77706;BME280;66874;45.274;5.880;2023-08-08T04:34:14;99192.00;;;12.35;60.82
77706;BME280;66874;45.274;5.880;2023-08-08T04:36:39;99195.56;;;12.33;60.92
77706;BME280;66874;45.274;5.880;2023-08-08T04:39:05;99185.97;;;12.32;61.14
77706;BME280;66874;45.274;5.880;2023-08-08T04:41:30;99194.69;;;12.32;61.07
77706;BME280;66874;45.274;5.880;2023-08-08T04:43:55;99185.06;;;12.33;61.03
77706;BME280;66874;45.274;5.880;2023-08-08T04:46:21;99188.59;;;12.32;61.17
77706;BME280;66874;45.274;5.880;2023-08-08T04:48:46;99187.66;;;12.34;60.99
77706;BME280;66874;45.274;5.880;2023-08-08T04:51:12;99191.16;;;12.35;61.10
77706;BME280;66874;45.274;5.880;2023-08-08T04:53:37;99192.06;;;12.34;61.08
77706;BME280;66874;45.274;5.880;2023-08-08T04:56:02;99191.16;;;12.33;61.16
77706;BME280;66874;45.274;5.880;2023-08-08T04:58:28;99193.19;;;12.22;61.36
77706;BME280;66874;45.274;5.880;2023-08-08T05:00:53;99182.75;;;12.20;61.50
77706;BME280;66874;45.274;5.880;2023-08-08T05:03:20;99186.28;;;12.19;61.59
77706;BME280;66874;45.274;5.880;2023-08-08T05:05:45;99194.09;;;12.21;61.67
77706;BME280;66874;45.274;5.880;2023-08-08T05:08:12;99195.84;;;12.20;61.66
77706;BME280;66874;45.274;5.880;2023-08-08T05:10:38;99191.53;;;12.18;61.85
77706;BME280;66874;45.274;5.880;2023-08-08T05:13:03;99190.78;;;12.13;61.98
77706;BME280;66874;45.274;5.880;2023-08-08T05:15:29;99193.38;;;12.14;62.30
77706;BME280;66874;45.274;5.880;2023-08-08T05:17:55;99198.59;;;12.16;62.57
77706;BME280;66874;45.274;5.880;2023-08-08T05:20:21;99197.38;;;12.31;62.65
77706;BME280;66874;45.274;5.880;2023-08-08T05:22:47;99192.75;;;12.40;62.82
77706;BME280;66874;45.274;5.880;2023-08-08T05:25:12;99190.72;;;12.52;62.72
77706;BME280;66874;45.274;5.880;2023-08-08T05:27:38;99201.94;;;12.58;62.34
77706;BME280;66874;45.274;5.880;2023-08-08T05:30:03;99191.25;;;12.64;62.24
77706;BME280;66874;45.274;5.880;2023-08-08T05:32:29;99200.63;;;12.75;62.36
77706;BME280;66874;45.274;5.880;2023-08-08T05:34:55;99200.28;;;12.88;62.27
77706;BME280;66874;45.274;5.880;2023-08-08T05:37:22;99196.25;;;13.08;62.07
77706;BME280;66874;45.274;5.880;2023-08-08T05:39:47;99201.06;;;13.25;61.94
77706;BME280;66874;45.274;5.880;2023-08-08T05:42:12;99208.59;;;13.37;61.76
77706;BME280;66874;45.274;5.880;2023-08-08T05:44:38;99207.44;;;13.47;61.66
77706;BME280;66874;45.274;5.880;2023-08-08T05:47:03;99207.19;;;13.56;61.73
77706;BME280;66874;45.274;5.880;2023-08-08T05:49:29;99205.22;;;13.64;61.58
77706;BME280;66874;45.274;5.880;2023-08-08T05:51:54;99201.91;;;13.58;61.62
77706;BME280;66874;45.274;5.880;2023-08-08T05:54:19;99212.34;;;13.59;61.78
77706;BME280;66874;45.274;5.880;2023-08-08T05:56:45;99216.81;;;13.57;61.70
77706;BME280;66874;45.274;5.880;2023-08-08T05:59:11;99215.03;;;13.58;61.73
77706;BME280;66874;45.274;5.880;2023-08-08T06:01:36;99220.25;;;13.59;61.92
77706;BME280;66874;45.274;5.880;2023-08-08T06:04:03;99222.63;;;13.68;61.81
77706;BME280;66874;45.274;5.880;2023-08-08T06:06:30;99219.78;;;13.75;61.75
77706;BME280;66874;45.274;5.880;2023-08-08T06:08:56;99214.38;;;13.79;61.75
77706;BME280;66874;45.274;5.880;2023-08-08T06:11:21;99218.63;;;13.85;61.60
77706;BME280;66874;45.274;5.880;2023-08-08T06:13:48;99212.34;;;13.89;61.60
77706;BME280;66874;45.274;5.880;2023-08-08T06:16:14;99217.41;;;13.95;61.25
77706;BME280;66874;45.274;5.880;2023-08-08T06:18:40;99218.06;;;14.03;61.27
77706;BME280;66874;45.274;5.880;2023-08-08T06:21:06;99218.69;;;14.11;60.98
77706;BME280;66874;45.274;5.880;2023-08-08T06:23:32;99222.13;;;14.13;60.89
77706;BME280;66874;45.274;5.880;2023-08-08T06:25:57;99214.13;;;14.16;60.84
77706;BME280;66874;45.274;5.880;2023-08-08T06:28:23;99225.25;;;14.26;60.48
77706;BME280;66874;45.274;5.880;2023-08-08T06:30:48;99224.00;;;14.38;60.61
77706;BME280;66874;45.274;5.880;2023-08-08T06:33:14;99225.41;;;14.48;60.50
77706;BME280;66874;45.274;5.880;2023-08-08T06:35:39;99232.19;;;14.57;60.24
77706;BME280;66874;45.274;5.880;2023-08-08T06:38:05;99239.97;;;14.60;60.17
77706;BME280;66874;45.274;5.880;2023-08-08T06:40:30;99235.56;;;14.60;60.14
77706;BME280;66874;45.274;5.880;2023-08-08T06:42:55;99237.22;;;14.63;60.04
77706;BME280;66874;45.274;5.880;2023-08-08T06:45:21;99240.56;;;14.68;59.87
77706;BME280;66874;45.274;5.880;2023-08-08T06:47:47;99238.00;;;14.67;59.99
77706;BME280;66874;45.274;5.880;2023-08-08T06:50:12;99237.03;;;14.69;59.87
77706;BME280;66874;45.274;5.880;2023-08-08T06:52:38;99241.31;;;14.73;59.81
77706;BME280;66874;45.274;5.880;2023-08-08T06:55:04;99241.06;;;14.79;59.70
77706;BME280;66874;45.274;5.880;2023-08-08T06:57:33;99237.28;;;14.88;59.49
77706;BME280;66874;45.274;5.880;2023-08-08T06:59:58;99232.78;;;14.92;59.27
77706;BME280;66874;45.274;5.880;2023-08-08T07:02:24;99234.41;;;14.96;59.25
77706;BME280;66874;45.274;5.880;2023-08-08T07:04:49;99227.19;;;15.01;59.28
77706;BME280;66874;45.274;5.880;2023-08-08T07:07:15;99226.00;;;15.09;59.02
77706;BME280;66874;45.274;5.880;2023-08-08T07:09:40;99227.44;;;15.18;59.12
77706;BME280;66874;45.274;5.880;2023-08-08T07:12:07;99230.56;;;15.29;58.99
77706;BME280;66874;45.274;5.880;2023-08-08T07:14:32;99225.00;;;15.37;59.03
77706;BME280;66874;45.274;5.880;2023-08-08T07:16:58;99215.09;;;15.45;58.79
77706;BME280;66874;45.274;5.880;2023-08-08T07:19:23;99214.81;;;15.53;58.64
77706;BME280;66874;45.274;5.880;2023-08-08T07:21:49;99218.88;;;15.61;58.63
77706;BME280;66874;45.274;5.880;2023-08-08T07:24:15;99213.44;;;15.66;58.37
77706;BME280;66874;45.274;5.880;2023-08-08T07:26:41;99217.63;;;15.72;58.37
77706;BME280;66874;45.274;5.880;2023-08-08T07:29:06;99212.22;;;15.75;58.23
77706;BME280;66874;45.274;5.880;2023-08-08T07:31:32;99213.84;;;15.79;58.22
77706;BME280;66874;45.274;5.880;2023-08-08T07:33:58;99204.88;;;15.83;58.24
77706;BME280;66874;45.274;5.880;2023-08-08T07:36:24;99215.84;;;15.96;58.26
77706;BME280;66874;45.274;5.880;2023-08-08T07:38:49;99211.22;;;16.01;58.03
77706;BME280;66874;45.274;5.880;2023-08-08T07:41:14;99212.59;;;16.11;58.17
77706;BME280;66874;45.274;5.880;2023-08-08T07:43:40;99207.81;;;16.21;57.79
77706;BME280;66874;45.274;5.880;2023-08-08T07:46:05;99205.72;;;16.29;57.57
77706;BME280;66874;45.274;5.880;2023-08-08T07:48:31;99208.00;;;16.38;57.25
77706;BME280;66874;45.274;5.880;2023-08-08T07:50:56;99213.75;;;16.48;57.04
77706;BME280;66874;45.274;5.880;2023-08-08T07:53:22;99214.19;;;16.59;57.01
77706;BME280;66874;45.274;5.880;2023-08-08T07:55:47;99219.22;;;16.65;56.55
77706;BME280;66874;45.274;5.880;2023-08-08T07:58:13;99220.81;;;16.69;56.36
77706;BME280;66874;45.274;5.880;2023-08-08T08:00:38;99214.31;;;16.78;55.82
77706;BME280;66874;45.274;5.880;2023-08-08T08:03:04;99211.25;;;16.87;55.88
77706;BME280;66874;45.274;5.880;2023-08-08T08:05:29;99207.59;;;16.91;55.91
77706;BME280;66874;45.274;5.880;2023-08-08T08:07:55;99212.34;;;17.03;55.79
77706;BME280;66874;45.274;5.880;2023-08-08T08:10:20;99201.09;;;17.19;55.88
77706;BME280;66874;45.274;5.880;2023-08-08T08:12:46;99203.19;;;17.31;55.16
77706;BME280;66874;45.274;5.880;2023-08-08T08:15:11;99203.59;;;17.42;54.78
77706;BME280;66874;45.274;5.880;2023-08-08T08:17:37;99203.75;;;17.58;54.83
77706;BME280;66874;45.274;5.880;2023-08-08T08:20:03;99202.25;;;17.71;54.18
77706;BME280;66874;45.274;5.880;2023-08-08T08:22:36;99198.50;;;17.77;53.67
77706;BME280;66874;45.274;5.880;2023-08-08T08:25:02;99198.19;;;17.83;53.65
77706;BME280;66874;45.274;5.880;2023-08-08T08:27:27;99197.56;;;17.97;53.72
77706;BME280;66874;45.274;5.880;2023-08-08T08:29:53;99193.63;;;18.05;53.50
77706;BME280;66874;45.274;5.880;2023-08-08T08:32:18;99184.31;;;18.16;53.01
77706;BME280;66874;45.274;5.880;2023-08-08T08:34:44;99186.69;;;18.22;52.98
77706;BME280;66874;45.274;5.880;2023-08-08T08:37:09;99178.97;;;18.35;52.59
77706;BME280;66874;45.274;5.880;2023-08-08T08:39:35;99173.94;;;18.47;52.10
77706;BME280;66874;45.274;5.880;2023-08-08T08:42:00;99169.97;;;18.56;52.20
77706;BME280;66874;45.274;5.880;2023-08-08T08:44:30;99163.41;;;18.63;51.81
77706;BME280;66874;45.274;5.880;2023-08-08T08:46:59;99161.97;;;18.75;51.82
77706;BME280;66874;45.274;5.880;2023-08-08T08:49:26;99159.78;;;18.83;51.25
77706;BME280;66874;45.274;5.880;2023-08-08T08:51:55;99145.28;;;18.90;50.92
77706;BME280;66874;45.274;5.880;2023-08-08T08:54:21;99144.13;;;18.96;50.59
77706;BME280;66874;45.274;5.880;2023-08-08T08:56:48;99142.22;;;18.98;50.22
77706;BME280;66874;45.274;5.880;2023-08-08T08:59:13;99145.97;;;19.11;50.38
77706;BME280;66874;45.274;5.880;2023-08-08T09:01:39;99145.31;;;19.23;49.69
77706;BME280;66874;45.274;5.880;2023-08-08T09:04:05;99134.13;;;19.34;49.68
77706;BME280;66874;45.274;5.880;2023-08-08T09:06:33;99136.66;;;19.53;49.23
77706;BME280;66874;45.274;5.880;2023-08-08T09:08:58;99129.19;;;19.60;49.34
77706;BME280;66874;45.274;5.880;2023-08-08T09:11:24;99134.19;;;19.66;48.97
77706;BME280;66874;45.274;5.880;2023-08-08T09:13:50;99130.44;;;19.70;49.21
77706;BME280;66874;45.274;5.880;2023-08-08T09:16:16;99126.06;;;19.85;49.26
77706;BME280;66874;45.274;5.880;2023-08-08T09:18:41;99120.84;;;19.99;49.08
77706;BME280;66874;45.274;5.880;2023-08-08T09:21:08;99117.75;;;20.07;48.59
77706;BME280;66874;45.274;5.880;2023-08-08T09:23:33;99116.19;;;20.18;48.42
77706;BME280;66874;45.274;5.880;2023-08-08T09:25:59;99111.00;;;20.31;48.61
77706;BME280;66874;45.274;5.880;2023-08-08T09:28:25;99107.56;;;20.45;48.18
77706;BME280;66874;45.274;5.880;2023-08-08T09:30:50;99107.56;;;20.45;47.74
77706;BME280;66874;45.274;5.880;2023-08-08T09:33:17;99109.25;;;20.62;47.86
77706;BME280;66874;45.274;5.880;2023-08-08T09:35:43;99108.31;;;20.77;47.05
77706;BME280;66874;45.274;5.880;2023-08-08T09:38:09;99105.00;;;21.02;46.87
77706;BME280;66874;45.274;5.880;2023-08-08T09:40:35;99108.00;;;21.26;46.21
77706;BME280;66874;45.274;5.880;2023-08-08T09:43:01;99102.09;;;21.50;46.31
77706;BME280;66874;45.274;5.880;2023-08-08T09:45:35;99098.91;;;21.72;45.94
77706;BME280;66874;45.274;5.880;2023-08-08T09:48:01;99105.22;;;21.98;45.78
77706;BME280;66874;45.274;5.880;2023-08-08T09:50:27;99100.97;;;22.22;45.31
77706;BME280;66874;45.274;5.880;2023-08-08T09:52:54;99102.97;;;22.46;44.79
77706;BME280;66874;45.274;5.880;2023-08-08T09:55:20;99100.09;;;22.61;44.52
77706;BME280;66874;45.274;5.880;2023-08-08T09:57:48;99102.03;;;22.72;44.05
77706;BME280;66874;45.274;5.880;2023-08-08T10:00:14;99095.22;;;22.68;43.85
77706;BME280;66874;45.274;5.880;2023-08-08T10:02:44;99088.78;;;22.71;43.87
77706;BME280;66874;45.274;5.880;2023-08-08T10:05:10;99092.56;;;22.81;43.61
77706;BME280;66874;45.274;5.880;2023-08-08T10:07:36;99084.56;;;22.94;43.92
77706;BME280;66874;45.274;5.880;2023-08-08T10:10:01;99094.28;;;23.20;43.24
77706;BME280;66874;45.274;5.880;2023-08-08T10:12:27;99089.88;;;23.45;42.83
77706;BME280;66874;45.274;5.880;2023-08-08T10:14:52;99085.84;;;23.63;42.50
77706;BME280;66874;45.274;5.880;2023-08-08T10:17:18;99092.13;;;23.87;41.96
77706;BME280;66874;45.274;5.880;2023-08-08T10:19:52;99090.72;;;23.95;41.19
77706;BME280;66874;45.274;5.880;2023-08-08T10:22:24;99079.88;;;24.20;40.88
77706;BME280;66874;45.274;5.880;2023-08-08T10:24:54;99073.94;;;24.52;40.46
77706;BME280;66874;45.274;5.880;2023-08-08T10:27:31;99077.56;;;24.86;39.84
77706;BME280;66874;45.274;5.880;2023-08-08T10:30:04;99069.53;;;24.86;39.29
77706;BME280;66874;45.274;5.880;2023-08-08T10:32:41;99073.06;;;25.09;39.09
77706;BME280;66874;45.274;5.880;2023-08-08T10:35:08;99071.16;;;25.45;38.78
77706;BME280;66874;45.274;5.880;2023-08-08T10:37:35;99069.56;;;25.65;38.15
77706;BME280;66874;45.274;5.880;2023-08-08T10:40:01;99070.63;;;25.62;37.83
77706;BME280;66874;45.274;5.880;2023-08-08T10:42:31;99064.34;;;26.07;37.66
77706;BME280;66874;45.274;5.880;2023-08-08T10:45:00;99062.88;;;26.35;37.27
77706;BME280;66874;45.274;5.880;2023-08-08T10:47:36;99069.41;;;26.53;36.29
77706;BME280;66874;45.274;5.880;2023-08-08T10:52:33;99069.09;;;26.35;36.62
77706;BME280;66874;45.274;5.880;2023-08-08T10:55:01;99075.25;;;26.26;36.45
77706;BME280;66874;45.274;5.880;2023-08-08T10:57:27;99073.53;;;26.25;36.54
77706;BME280;66874;45.274;5.880;2023-08-08T10:59:53;99065.91;;;26.41;36.50
77706;BME280;66874;45.274;5.880;2023-08-08T11:02:20;99070.84;;;26.78;36.33
77706;BME280;66874;45.274;5.880;2023-08-08T11:04:46;99072.38;;;27.22;35.55
77706;BME280;66874;45.274;5.880;2023-08-08T11:07:14;99057.72;;;27.77;34.69
77706;BME280;66874;45.274;5.880;2023-08-08T11:09:39;99048.81;;;27.76;34.48
77706;BME280;66874;45.274;5.880;2023-08-08T11:12:05;99036.53;;;28.03;34.04
77706;BME280;66874;45.274;5.880;2023-08-08T11:14:32;99035.69;;;28.41;33.59
77706;BME280;66874;45.274;5.880;2023-08-08T11:16:57;99036.78;;;28.67;32.87
77706;BME280;66874;45.274;5.880;2023-08-08T11:19:23;99028.66;;;28.87;32.22
77706;BME280;66874;45.274;5.880;2023-08-08T11:21:49;99018.41;;;29.10;31.70
77706;BME280;66874;45.274;5.880;2023-08-08T11:24:15;99014.84;;;29.09;31.92
77706;BME280;66874;45.274;5.880;2023-08-08T11:26:42;99015.84;;;29.36;31.67
77706;BME280;66874;45.274;5.880;2023-08-08T11:29:09;99021.47;;;29.70;31.44
77706;BME280;66874;45.274;5.880;2023-08-08T11:31:35;99013.50;;;29.51;30.90
77706;BME280;66874;45.274;5.880;2023-08-08T11:34:00;99009.66;;;29.53;31.07
77706;BME280;66874;45.274;5.880;2023-08-08T11:36:29;99005.72;;;29.93;30.61
77706;BME280;66874;45.274;5.880;2023-08-08T11:38:56;99005.63;;;30.03;30.50
77706;BME280;66874;45.274;5.880;2023-08-08T11:41:23;99001.84;;;30.31;30.82
77706;BME280;66874;45.274;5.880;2023-08-08T11:43:50;98985.44;;;30.95;30.31
77706;BME280;66874;45.274;5.880;2023-08-08T11:46:16;98986.53;;;31.18;29.87
77706;BME280;66874;45.274;5.880;2023-08-08T11:48:42;98988.00;;;31.39;29.47
77706;BME280;66874;45.274;5.880;2023-08-08T11:51:08;98987.13;;;31.30;29.12
77706;BME280;66874;45.274;5.880;2023-08-08T11:53:35;98986.22;;;31.21;28.90
77706;BME280;66874;45.274;5.880;2023-08-08T11:56:03;98996.47;;;30.57;29.27
77706;BME280;66874;45.274;5.880;2023-08-08T11:58:29;98991.34;;;30.46;29.34
77706;BME280;66874;45.274;5.880;2023-08-08T12:00:56;98983.97;;;31.08;29.32
77706;BME280;66874;45.274;5.880;2023-08-08T12:03:22;98977.38;;;31.53;28.46
77706;BME280;66874;45.274;5.880;2023-08-08T12:05:48;98958.84;;;31.83;28.04
77706;BME280;66874;45.274;5.880;2023-08-08T12:08:20;98959.56;;;32.18;27.94
77706;BME280;66874;45.274;5.880;2023-08-08T12:10:50;98951.44;;;32.42;27.66
77706;BME280;66874;45.274;5.880;2023-08-08T12:13:23;98955.91;;;32.74;27.43
77706;BME280;66874;45.274;5.880;2023-08-08T12:15:52;98947.16;;;33.20;26.31
77706;BME280;66874;45.274;5.880;2023-08-08T12:18:18;98958.34;;;33.56;26.11
77706;BME280;66874;45.274;5.880;2023-08-08T12:31:18;98953.03;;;34.09;26.30
77706;BME280;66874;45.274;5.880;2023-08-08T12:33:44;98953.59;;;34.42;25.27
77706;BME280;66874;45.274;5.880;2023-08-08T12:36:10;98947.78;;;34.30;25.02
77706;BME280;66874;45.274;5.880;2023-08-08T12:38:36;98951.31;;;34.54;24.68
77706;BME280;66874;45.274;5.880;2023-08-08T12:41:01;98950.59;;;34.37;24.75
77706;BME280;66874;45.274;5.880;2023-08-08T12:43:28;98941.78;;;34.35;24.27
77706;BME280;66874;45.274;5.880;2023-08-08T12:45:53;98939.78;;;34.14;24.27
77706;BME280;66874;45.274;5.880;2023-08-08T12:48:19;98938.91;;;34.51;24.51
77706;BME280;66874;45.274;5.880;2023-08-08T12:50:44;98933.97;;;34.55;23.71
77706;BME280;66874;45.274;5.880;2023-08-08T12:53:10;98928.63;;;34.61;23.81
77706;BME280;66874;45.274;5.880;2023-08-08T12:55:35;98931.47;;;34.83;24.22
77706;BME280;66874;45.274;5.880;2023-08-08T12:58:02;98918.50;;;35.51;23.37
77706;BME280;66874;45.274;5.880;2023-08-08T13:00:29;98916.25;;;35.54;23.21
77706;BME280;66874;45.274;5.880;2023-08-08T13:02:54;98911.00;;;35.02;23.24
77706;BME280;66874;45.274;5.880;2023-08-08T13:05:20;98913.63;;;34.95;23.22
77706;BME280;66874;45.274;5.880;2023-08-08T13:07:45;98914.75;;;34.71;23.60